LYBELGAV

Guest
Details From LYBE - Belgrade
To LGAV - Athens Intl Airport Elefterios Venizel
Flight Number -
Tags generated
Created
Modified
Stats Distance 450 nm / 833 km
Max Altitude 35,000 ft / 10,668 m
Waypoints 10
Social Downloads 1
Likes 0
Share VATSIM

Download

Looking for another format? Having issues loading an existing format? Contact us
Advertisement - Login to hide

Notes

Basic altitude profile: - Ascent Rate: 2500ft/min - Ascent Speed: 250kts - Cruise Altitude: 35000ft - Cruise Speed: 420kts - Descent Rate: 1500ft/min - Descent Speed: 250kts

Route

LYBE NEKAD UN128 VAGEN UL617 TSL UB1 BAMOS LGAV

ID Type Via Altitude Latitude Longitude Leg Dist Tot Dist Heading (true) Name
O LYBE APT - 0 ft / 0 m 44.81843˚ 20.30921˚ - 0 nm - Belgrade
NEKAD FIX - 35,000 ft / 10,668 m 43.30064˚ 21.41097˚ 102 nm 102 nm 152° / 153° -
VAGEN FIX UN128 (AWY-HI) 35,000 ft / 10,668 m 42.72458˚ 22.07781˚ 45 nm 148 nm 140° / 140° -
RAXAD FIX UL617 (AWY-HI) 35,000 ft / 10,668 m 42.30742˚ 22.24208˚ 26 nm 174 nm 164° / 164° -
MAKED FIX UL617 (AWY-HI) 35,000 ft / 10,668 m 41.12917˚ 22.51667˚ 71 nm 246 nm 170° / 170° -
TSL VOR UL617 (AWY-HI) 33,800 ft / 10,302 m 40.45694˚ 22.99111˚ 45 nm 291 nm 152° / 152° THESSALONIKI VOR-DME
LEKPO FIX UB1 (AWY-HI) 29,100 ft / 8,870 m 40.11278˚ 23.16194˚ 22 nm 313 nm 159° / 159° -
AGISA FIX UB1 (AWY-HI) 23,500 ft / 7,163 m 39.73333˚ 23.35000˚ 24 nm 338 nm 159° / 159° -
BAMOS FIX UB1 (AWY-HI) 23,500 ft / 7,163 m 39.29375˚ 23.56047˚ 28 nm 366 nm 160° / 160° -
O LGAV APT - 0 ft / 0 m 37.93636˚ 23.94447˚ 83 nm 449 nm 167° / 168° Athens Intl Airport Elefterios Venizel

Altitude Profile

Advertisement - Login to hide

Weather


0- 5 10 15 20 25 30 35+ Temperature / ° C

Clouds and Precipitation
Forecast for 2017-12-14 00:00 UTC. Updated 2 hours ago

Ground ~20,000 ft ~40,000 ft Winds

LYBE

Details ICAO LYBE (BEG)
Name Belgrade
Region Serbia and Montenegro
Timezone Europe/Belgrade (UTC+1.0)
Stats Elevation 335 ft / 102 m (AMSL)
Location 44.818429° 20.309211°
Runways 1
Magnetic Variation 4.671° E

METAR

LYBE 132030Z 17005KT 5000 BR BKN003 02/02 Q1016 NOSIG

Decode

TAF

TAF LYBE 131700Z 1318/1418 18006KT 8000 SCT010 BKN040 TX10/1412Z TN02/1405Z TEMPO 1321/1405 4000 BR TEMPO 1412/1416 5000 RA

Decode

Departure Runways

ID Width Length Bearing (true) Bearing (mag) Surface Threshold Offset Overrun Length
12 148 ft / 45 m 11,138 ft / 3,395 m 122.00° 117.33° Asphalt 1,000 ft / 305 m 0 ft / 0 m
30 148 ft / 45 m 11,138 ft / 3,395 m 302.03° 297.36° Asphalt 1,312 ft / 400 m 0 ft / 0 m

LGAV

Details ICAO LGAV (ATH)
Name Athens Intl Airport Elefterios Venizel
Region Greece
Timezone Europe/Athens (UTC+2.0)
Stats Elevation 308 ft / 94 m (AMSL)
Location 37.936357° 23.944470°
Runways 2
Magnetic Variation 4.484° E

METAR

LGAV 132050Z 20011KT CAVOK 15/07 Q1018 NOSIG

Decode

TAF

TAF LGAV 131700Z 1318/1418 25008KT 9999 FEW025= TAF LGEL 131700Z 1318/1418 26010KT 9999 FEW025 BECMG 1319/1321 VRB05KT

Decode

Destination Runways

ID Width Length Bearing (true) Bearing (mag) Surface Threshold Offset Overrun Length
03L 148 ft / 45 m 12,474 ft / 3,802 m 36.51° 32.03° Asphalt 984 ft / 300 m 393 ft / 120 m
03R 148 ft / 45 m 13,131 ft / 4,002 m 36.52° 32.04° Asphalt 984 ft / 300 m 393 ft / 120 m
21L 148 ft / 45 m 13,131 ft / 4,002 m 216.54° 212.06° Asphalt 984 ft / 300 m 393 ft / 120 m
21R 148 ft / 45 m 12,474 ft / 3,802 m 216.53° 212.05° Asphalt 984 ft / 300 m 393 ft / 120 m

Approach Navaids

Runway Type Ident Frequency Range Bearing (true) Bearing (mag) Slope Elevation
03L Localiser IATL 110.50 MHz 18 nm / 33 km 36.52° 32.04° - 282 ft / 86 m (AMSL)
03L Glidescope IATL 110.50 MHz 10 nm / 19 km 36.52° 32.03° 3.00° 255 ft / 78 m (AMSL)
03L DME IATL 110.50 MHz 18 nm / 33 km - - - 255 ft / 78 m (AMSL)
03R Localiser IATR 111.10 MHz 18 nm / 33 km 36.97° 32.49° - 302 ft / 92 m (AMSL)
03R Glidescope IATR 111.10 MHz 10 nm / 19 km 36.53° 32.05° 3.00° 271 ft / 83 m (AMSL)
21L Localiser IEVL 111.10 MHz 18 nm / 33 km 216.52° 212.04° - 271 ft / 83 m (AMSL)
21L Glidescope IEVL 111.10 MHz 10 nm / 19 km 216.53° 212.05° 3.00° 302 ft / 92 m (AMSL)
21L DME IEVL 111.10 MHz 18 nm / 33 km - - - 303 ft / 92 m (AMSL)
21R Localiser IEVR 110.50 MHz 18 nm / 33 km 216.50° 212.02° - 255 ft / 78 m (AMSL)
21R Glidescope IEVR 110.50 MHz 10 nm / 19 km 216.52° 212.03° 3.00° 282 ft / 86 m (AMSL)
21R DME IEVR 110.50 MHz 18 nm / 33 km - - - 282 ft / 86 m (AMSL)

Popular Alternatives